createdAt,value
2023-03-17T00:02:01.324Z,8.80
2023-03-17T00:04:29.587Z,11.70
2023-03-17T00:06:58.067Z,14.00
2023-03-17T00:09:26.099Z,10.10
2023-03-17T00:11:54.689Z,14.00
2023-03-17T00:14:23.779Z,14.60
2023-03-17T00:16:52.049Z,12.80
2023-03-17T00:19:27.255Z,16.90
2023-03-17T00:21:56.277Z,13.50
2023-03-17T00:24:24.542Z,12.70
2023-03-17T00:26:53.397Z,13.00
2023-03-17T00:29:21.713Z,12.30
2023-03-17T00:31:51.286Z,11.80
2023-03-17T00:34:23.409Z,13.80
2023-03-17T00:36:51.727Z,14.10
2023-03-17T00:39:19.928Z,15.70
2023-03-17T00:44:15.149Z,11.70
2023-03-17T00:46:43.239Z,14.20
2023-03-17T00:49:21.320Z,13.40
2023-03-17T00:51:52.084Z,12.10
2023-03-17T00:54:20.874Z,13.60
2023-03-17T00:56:49.567Z,13.80
2023-03-17T00:59:25.410Z,15.10
2023-03-17T01:01:53.642Z,12.90
2023-03-17T01:04:22.772Z,13.30
2023-03-17T01:06:51.338Z,15.40
2023-03-17T01:09:20.489Z,10.90
2023-03-17T01:11:51.211Z,11.40
2023-03-17T01:14:19.239Z,14.30
2023-03-17T01:16:47.912Z,12.00
2023-03-17T01:19:16.908Z,12.30
2023-03-17T01:21:46.484Z,13.40
2023-03-17T01:24:14.768Z,15.10
2023-03-17T01:26:42.849Z,12.90
2023-03-17T01:29:11.283Z,13.60
2023-03-17T01:31:39.483Z,11.80
2023-03-17T01:34:07.522Z,11.30
2023-03-17T01:36:35.860Z,10.60
2023-03-17T01:39:05.274Z,12.70
2023-03-17T01:41:34.837Z,11.60
2023-03-17T01:44:03.773Z,16.20
2023-03-17T01:46:34.032Z,12.70
2023-03-17T01:49:14.619Z,13.80
2023-03-17T01:51:57.689Z,10.60
2023-03-17T01:54:29.796Z,16.00
2023-03-17T01:57:01.175Z,11.20
2023-03-17T01:59:33.796Z,9.20
2023-03-17T02:02:05.426Z,12.70
2023-03-17T02:04:34.185Z,13.40
2023-03-17T02:07:02.661Z,10.70
2023-03-17T02:09:31.626Z,10.20
2023-03-17T02:12:00.856Z,11.40
2023-03-17T02:14:29.386Z,12.30
2023-03-17T02:16:57.633Z,10.20
2023-03-17T02:19:25.920Z,10.50
2023-03-17T02:21:55.336Z,9.20
2023-03-17T02:24:29.391Z,10.50
2023-03-17T02:27:21.323Z,12.90
2023-03-17T02:29:49.684Z,10.70
2023-03-17T02:32:18.647Z,9.50
2023-03-17T02:34:47.208Z,9.20
2023-03-17T02:37:16.082Z,8.90
2023-03-17T02:39:44.169Z,8.50
2023-03-17T02:42:12.809Z,10.90
2023-03-17T02:44:41.176Z,10.40
2023-03-17T02:47:09.211Z,9.80
2023-03-17T02:49:37.400Z,8.90
2023-03-17T02:52:08.326Z,11.90
2023-03-17T02:54:36.554Z,9.70
2023-03-17T02:57:04.885Z,9.90
2023-03-17T02:59:32.911Z,10.80
2023-03-17T03:02:01.261Z,10.40
2023-03-17T03:04:29.696Z,12.50
2023-03-17T03:06:57.783Z,12.10
2023-03-17T03:09:25.981Z,9.50
2023-03-17T03:11:54.119Z,14.60
2023-03-17T03:14:22.376Z,10.90
2023-03-17T03:16:51.106Z,19.20
2023-03-17T03:19:19.227Z,8.70
2023-03-17T03:21:47.269Z,9.30
2023-03-17T03:24:15.302Z,11.20
2023-03-17T03:26:44.251Z,10.40
2023-03-17T03:29:12.276Z,9.30
2023-03-17T03:31:40.693Z,13.30
2023-03-17T03:34:08.704Z,9.60
2023-03-17T03:36:37.091Z,10.20
2023-03-17T03:39:05.204Z,11.90
2023-03-17T03:41:33.315Z,8.50
2023-03-17T03:44:01.451Z,12.60
2023-03-17T03:46:29.624Z,11.40
2023-03-17T03:48:57.675Z,8.30
2023-03-17T03:51:25.790Z,12.40
2023-03-17T03:53:53.924Z,10.10
2023-03-17T03:56:21.968Z,12.20
2023-03-17T03:58:51.340Z,8.60
2023-03-17T04:01:19.998Z,9.10
2023-03-17T04:03:48.215Z,10.80
2023-03-17T04:06:19.267Z,8.80
2023-03-17T04:08:47.327Z,10.30
2023-03-17T04:11:15.357Z,10.90
2023-03-17T04:13:43.510Z,14.80
2023-03-17T04:16:11.767Z,9.90
2023-03-17T04:18:39.950Z,10.40
2023-03-17T04:21:08.433Z,17.70
2023-03-17T04:23:36.571Z,22.00
2023-03-17T04:26:04.862Z,10.70
2023-03-17T04:28:32.999Z,12.60
2023-03-17T04:31:01.571Z,10.00
2023-03-17T04:33:29.527Z,12.80
2023-03-17T04:35:58.546Z,8.00
2023-03-17T04:38:26.714Z,8.90
2023-03-17T04:40:54.858Z,11.00
2023-03-17T04:43:24.645Z,10.00
2023-03-17T04:45:52.850Z,13.30
2023-03-17T04:48:23.169Z,15.10
2023-03-17T04:50:52.703Z,12.90
2023-03-17T04:53:20.763Z,28.90
2023-03-17T04:55:48.896Z,53.20
2023-03-17T04:58:30.005Z,59.10
2023-03-17T05:00:59.342Z,60.90
2023-03-17T05:03:28.721Z,57.80
2023-03-17T05:05:57.732Z,67.30
2023-03-17T05:08:26.382Z,27.10
2023-03-17T05:10:57.572Z,52.50
2023-03-17T05:13:25.678Z,10.70
2023-03-17T05:15:54.793Z,12.40
2023-03-17T05:18:23.930Z,13.40
2023-03-17T05:20:51.998Z,10.00
2023-03-17T05:23:20.709Z,12.00
2023-03-17T05:25:49.096Z,14.30
2023-03-17T05:28:17.179Z,8.60
2023-03-17T05:30:46.063Z,14.80
2023-03-17T05:33:14.897Z,11.40
2023-03-17T05:35:43.245Z,11.40
2023-03-17T05:38:11.696Z,8.90
2023-03-17T05:40:39.820Z,10.00
2023-03-17T05:43:07.840Z,9.70
2023-03-17T05:45:35.822Z,11.60
2023-03-17T05:48:04.885Z,11.60
2023-03-17T05:50:33.295Z,9.90
2023-03-17T05:53:01.820Z,11.60
2023-03-17T05:55:30.582Z,10.70
2023-03-17T05:57:58.920Z,10.10
2023-03-17T06:00:29.426Z,10.00
2023-03-17T06:02:58.208Z,11.40
2023-03-17T06:05:29.838Z,9.50
2023-03-17T06:07:57.866Z,8.10
2023-03-17T06:10:26.297Z,9.60
2023-03-17T06:12:54.592Z,11.10
2023-03-17T06:15:22.785Z,12.20
2023-03-17T06:17:51.819Z,12.50
2023-03-17T06:20:20.076Z,15.50
2023-03-17T06:23:02.718Z,13.30
2023-03-17T06:25:34.192Z,9.50
2023-03-17T06:28:03.935Z,10.20
2023-03-17T06:30:33.200Z,10.90
2023-03-17T06:33:02.101Z,10.20
2023-03-17T06:35:31.002Z,12.00
2023-03-17T06:37:59.897Z,9.40
2023-03-17T06:40:29.177Z,17.40
2023-03-17T06:42:57.474Z,12.50
2023-03-17T06:45:26.055Z,12.10
2023-03-17T06:47:54.038Z,14.80
2023-03-17T06:50:24.356Z,11.00
2023-03-17T06:52:52.418Z,15.60
2023-03-17T06:55:21.617Z,10.10
2023-03-17T06:57:52.974Z,13.70
2023-03-17T07:00:22.550Z,11.50
2023-03-17T07:02:51.212Z,11.30
2023-03-17T07:05:19.387Z,13.00
2023-03-17T07:07:47.861Z,18.20
2023-03-17T07:10:37.704Z,13.60
2023-03-17T07:13:07.786Z,8.90
2023-03-17T07:15:37.457Z,4.30
2023-03-17T07:18:08.952Z,11.00
2023-03-17T07:20:39.439Z,9.20
2023-03-17T07:23:08.955Z,10.50
2023-03-17T07:25:37.049Z,11.60
2023-03-17T07:28:05.332Z,9.80
2023-03-17T07:30:35.576Z,10.60
2023-03-17T07:33:06.624Z,13.30
2023-03-17T07:35:35.035Z,7.70
2023-03-17T07:38:03.436Z,6.10
2023-03-17T07:40:34.816Z,7.40
2023-03-17T07:43:03.241Z,8.20
2023-03-17T07:45:40.480Z,6.40
2023-03-17T07:48:08.829Z,8.80
2023-03-17T07:50:37.012Z,9.50
2023-03-17T07:53:05.216Z,11.00
2023-03-17T07:55:33.599Z,8.70
2023-03-17T07:58:02.014Z,6.50
2023-03-17T08:00:30.869Z,9.00
2023-03-17T08:03:09.411Z,7.70
2023-03-17T08:05:47.242Z,5.90
2023-03-17T08:08:15.548Z,6.20
2023-03-17T08:10:43.825Z,10.70
2023-03-17T08:13:12.359Z,6.70
2023-03-17T08:15:41.042Z,6.80
2023-03-17T08:18:09.325Z,5.90
2023-03-17T08:20:37.908Z,8.60
2023-03-17T08:23:06.411Z,7.30
2023-03-17T08:25:34.475Z,8.30
2023-03-17T08:28:03.610Z,7.70
2023-03-17T08:30:33.766Z,8.30
2023-03-17T08:33:21.463Z,4.10
2023-03-17T08:38:18.105Z,5.80
2023-03-17T08:40:46.131Z,5.50
2023-03-17T08:43:14.727Z,4.90
2023-03-17T08:45:48.334Z,7.00
2023-03-17T08:48:16.593Z,6.30
2023-03-17T08:50:45.347Z,5.40
2023-03-17T08:53:14.293Z,6.90
2023-03-17T08:55:42.401Z,5.80
2023-03-17T08:58:20.707Z,6.90
2023-03-17T09:00:49.069Z,7.60
2023-03-17T09:03:17.171Z,7.30
2023-03-17T09:05:45.364Z,4.80
2023-03-17T09:08:27.888Z,5.40
2023-03-17T09:10:56.215Z,6.90
2023-03-17T09:13:24.332Z,6.70
2023-03-17T09:15:53.407Z,6.30
2023-03-17T09:18:22.312Z,10.10
2023-03-17T09:20:52.725Z,3.00
2023-03-17T09:23:23.984Z,4.70
2023-03-17T09:25:52.343Z,5.20
2023-03-17T09:28:23.745Z,4.60
2023-03-17T09:30:52.873Z,6.80
2023-03-17T09:33:21.059Z,4.80
2023-03-17T09:35:52.208Z,5.60
2023-03-17T09:38:20.416Z,4.60
2023-03-17T09:40:52.920Z,4.90
2023-03-17T09:43:27.310Z,6.00
2023-03-17T09:45:56.161Z,4.50
2023-03-17T09:48:43.277Z,6.30
2023-03-17T09:51:18.548Z,4.80
2023-03-17T09:54:02.478Z,5.00
2023-03-17T09:56:32.470Z,5.40
2023-03-17T09:59:06.424Z,4.10
2023-03-17T10:01:34.542Z,7.40
2023-03-17T10:04:02.730Z,4.10
2023-03-17T10:06:34.751Z,5.00
2023-03-17T10:09:27.900Z,5.60
2023-03-17T10:12:10.903Z,3.30
2023-03-17T10:14:59.406Z,5.80
2023-03-17T10:17:46.222Z,4.80
2023-03-17T10:20:28.899Z,7.00
2023-03-17T10:23:13.804Z,4.20
2023-03-17T10:25:42.817Z,6.50
2023-03-17T10:28:35.552Z,3.90
2023-03-17T10:31:15.893Z,5.30
2023-03-17T10:33:45.065Z,6.40
2023-03-17T10:36:15.714Z,4.60
2023-03-17T10:38:54.500Z,3.80
2023-03-17T10:41:22.532Z,3.80
2023-03-17T10:43:54.652Z,4.20
2023-03-17T10:46:25.269Z,3.20
2023-03-17T10:48:57.684Z,2.80
2023-03-17T10:51:38.516Z,3.10
2023-03-17T10:54:11.272Z,4.20
2023-03-17T10:56:42.013Z,5.70
2023-03-17T10:59:22.215Z,2.90
2023-03-17T11:02:01.561Z,3.40
2023-03-17T11:04:33.398Z,2.60
2023-03-17T11:07:06.895Z,3.10
2023-03-17T11:09:35.319Z,3.30
2023-03-17T11:12:08.924Z,3.70
2023-03-17T11:14:37.504Z,2.90
2023-03-17T11:17:45.545Z,3.00
2023-03-17T11:20:20.915Z,2.40
2023-03-17T11:22:59.920Z,4.90
2023-03-17T11:25:28.285Z,3.40
2023-03-17T11:28:16.863Z,2.20
2023-03-17T11:30:52.726Z,4.10
2023-03-17T11:33:30.003Z,2.90
2023-03-17T11:36:30.014Z,2.20
2023-03-17T11:39:16.089Z,3.20
2023-03-17T11:42:07.020Z,4.10
2023-03-17T11:45:16.490Z,2.10
2023-03-17T11:48:13.824Z,2.10
2023-03-17T11:51:02.131Z,4.70
2023-03-17T11:53:36.668Z,4.80
2023-03-17T11:56:08.300Z,2.50
2023-03-17T11:58:46.994Z,5.20
2023-03-17T12:01:17.496Z,3.50
2023-03-17T12:03:50.252Z,4.80
2023-03-17T12:06:29.099Z,4.40
2023-03-17T12:09:07.844Z,4.40
2023-03-17T12:11:37.624Z,3.90
2023-03-17T12:14:07.695Z,2.90
2023-03-17T12:16:39.209Z,4.00
2023-03-17T12:19:38.935Z,4.40
2023-03-17T12:22:17.451Z,2.70
2023-03-17T12:24:51.468Z,3.80
2023-03-17T12:27:29.096Z,4.90
2023-03-17T12:30:17.145Z,4.00
2023-03-17T12:32:53.686Z,2.90
2023-03-17T12:35:29.633Z,3.60
2023-03-17T12:38:18.201Z,3.30
2023-03-17T12:41:15.289Z,2.90
2023-03-17T12:43:55.943Z,4.00
2023-03-17T12:47:03.497Z,4.10
2023-03-17T12:49:53.774Z,5.90
2023-03-17T12:52:46.288Z,5.40
2023-03-17T12:55:15.933Z,3.90
2023-03-17T12:57:45.996Z,6.10
2023-03-17T13:00:20.478Z,6.10
2023-03-17T13:02:50.914Z,5.50
2023-03-17T13:05:28.450Z,6.20
2023-03-17T13:07:56.900Z,6.20
2023-03-17T13:10:39.969Z,4.80
2023-03-17T13:13:30.380Z,6.90
2023-03-17T13:15:59.387Z,7.50
2023-03-17T13:19:13.610Z,7.40
2023-03-17T13:22:05.606Z,7.70
2023-03-17T13:24:47.345Z,8.90
2023-03-17T13:27:38.753Z,6.00
2023-03-17T13:30:26.900Z,6.90
2023-03-17T13:33:19.715Z,6.30
2023-03-17T13:35:52.644Z,5.50
2023-03-17T13:38:46.769Z,5.10
2023-03-17T13:41:48.457Z,5.10
2023-03-17T13:44:39.855Z,7.60
2023-03-17T13:47:31.162Z,6.00
2023-03-17T13:50:07.929Z,6.60
2023-03-17T13:52:48.501Z,5.10
2023-03-17T13:55:23.807Z,7.20
2023-03-17T13:58:10.604Z,5.50
2023-03-17T14:00:50.767Z,6.20
2023-03-17T14:03:40.253Z,6.70
2023-03-17T14:06:09.666Z,6.60
2023-03-17T14:08:59.790Z,7.20
2023-03-17T14:11:32.681Z,7.10
2023-03-17T14:14:10.777Z,7.90
2023-03-17T14:16:47.353Z,7.10
2023-03-17T14:19:26.849Z,5.10
2023-03-17T14:21:55.937Z,8.30
2023-03-17T14:24:33.577Z,4.90
2023-03-17T14:27:08.069Z,5.60
2023-03-17T14:29:36.120Z,3.80
2023-03-17T14:32:05.978Z,4.80
2023-03-17T14:34:34.113Z,6.70
2023-03-17T14:37:02.905Z,4.60
2023-03-17T14:39:31.119Z,7.60
2023-03-17T14:42:04.360Z,4.20
2023-03-17T14:44:42.343Z,6.60
2023-03-17T14:47:19.933Z,7.50
2023-03-17T14:49:48.059Z,8.10
2023-03-17T14:52:27.364Z,4.50
2023-03-17T14:54:57.496Z,4.30
2023-03-17T14:57:31.555Z,4.60
2023-03-17T15:00:23.677Z,3.70
2023-03-17T15:02:56.358Z,3.70
2023-03-17T15:05:42.212Z,4.30
2023-03-17T15:08:34.538Z,4.40
2023-03-17T15:11:04.644Z,4.60
2023-03-17T15:13:37.356Z,4.50
2023-03-17T15:16:07.402Z,5.00
2023-03-17T15:18:36.156Z,4.90
2023-03-17T15:21:04.388Z,4.20
2023-03-17T15:23:39.398Z,3.70
2023-03-17T15:26:24.185Z,4.00
2023-03-17T15:28:52.588Z,3.70
2023-03-17T15:31:23.580Z,3.70
2023-03-17T15:33:52.059Z,5.00
2023-03-17T15:36:31.750Z,3.90
2023-03-17T15:39:02.457Z,4.00
2023-03-17T15:41:30.623Z,3.30
2023-03-17T15:43:58.701Z,4.70
2023-03-17T15:46:27.815Z,5.80
2023-03-17T15:48:55.951Z,6.80
2023-03-17T15:51:24.042Z,6.40
2023-03-17T15:53:52.295Z,6.60
2023-03-17T15:56:21.069Z,5.30
2023-03-17T15:58:51.506Z,4.00
2023-03-17T16:01:19.862Z,4.10
2023-03-17T16:03:48.225Z,5.60
2023-03-17T16:06:22.109Z,5.20
2023-03-17T16:08:50.532Z,5.40
2023-03-17T16:11:28.273Z,7.80
2023-03-17T16:13:57.654Z,4.20
2023-03-17T16:16:45.918Z,3.90
2023-03-17T16:19:20.211Z,6.30
2023-03-17T16:21:49.131Z,7.50
2023-03-17T16:24:21.879Z,4.30
2023-03-17T16:26:50.535Z,6.40
2023-03-17T16:29:19.547Z,3.70
2023-03-17T16:31:49.376Z,6.90
2023-03-17T16:34:21.609Z,4.90
2023-03-17T16:36:50.506Z,5.20
2023-03-17T16:39:20.214Z,3.70
2023-03-17T16:41:49.274Z,6.30
2023-03-17T16:44:18.675Z,7.00
2023-03-17T16:46:47.007Z,7.30
2023-03-17T16:49:15.988Z,8.40
2023-03-17T16:51:44.229Z,4.30
2023-03-17T16:54:12.317Z,7.80
2023-03-17T16:56:40.659Z,8.10
2023-03-17T16:59:21.240Z,8.00
2023-03-17T17:01:49.513Z,6.10
2023-03-17T17:04:17.632Z,10.10
2023-03-17T17:06:45.960Z,10.80
2023-03-17T17:09:14.294Z,9.20
2023-03-17T17:11:42.362Z,9.90
2023-03-17T17:14:10.389Z,14.10
2023-03-17T17:16:40.034Z,13.60
2023-03-17T17:19:16.689Z,10.10
2023-03-17T17:21:44.847Z,12.10
2023-03-17T17:24:13.510Z,14.70
2023-03-17T17:26:41.690Z,12.80
2023-03-17T17:29:09.959Z,12.00
2023-03-17T17:31:38.065Z,11.70
2023-03-17T17:34:06.222Z,9.10
2023-03-17T17:36:34.222Z,10.30
2023-03-17T17:39:02.351Z,11.60
2023-03-17T17:41:32.544Z,13.20
2023-03-17T17:44:01.076Z,14.40
2023-03-17T17:46:32.764Z,21.80
2023-03-17T17:49:00.772Z,18.80
2023-03-17T17:51:28.877Z,18.00
2023-03-17T17:53:57.190Z,23.20
2023-03-17T17:56:28.361Z,18.50
2023-03-17T17:58:59.387Z,17.70
2023-03-17T18:01:27.779Z,21.10
2023-03-17T18:03:55.947Z,21.20
2023-03-17T18:06:24.324Z,23.50
2023-03-17T18:08:52.742Z,21.20
2023-03-17T18:11:20.860Z,23.40
2023-03-17T18:13:49.260Z,23.80
2023-03-17T18:16:18.118Z,22.80
2023-03-17T18:18:47.239Z,34.20
2023-03-17T18:21:15.446Z,19.80
2023-03-17T18:23:47.205Z,28.50
2023-03-17T18:26:15.957Z,19.50
2023-03-17T18:28:44.208Z,15.50
2023-03-17T18:31:13.405Z,17.70
2023-03-17T18:33:41.527Z,18.90
2023-03-17T18:36:09.745Z,19.60
2023-03-17T18:38:37.942Z,18.00
2023-03-17T18:41:06.994Z,20.50
2023-03-17T18:43:35.177Z,12.50
2023-03-17T18:46:12.976Z,20.30
2023-03-17T18:48:41.903Z,12.80
2023-03-17T18:51:09.946Z,18.20
2023-03-17T18:53:39.289Z,15.90
2023-03-17T18:56:07.744Z,19.30
2023-03-17T18:58:36.381Z,14.40
2023-03-17T19:01:04.814Z,14.70
2023-03-17T19:03:33.413Z,13.70
2023-03-17T19:06:12.159Z,14.60
2023-03-17T19:08:40.740Z,13.90
2023-03-17T19:11:27.940Z,14.30
2023-03-17T19:13:58.391Z,18.40
2023-03-17T19:16:29.030Z,16.70
2023-03-17T19:19:27.280Z,13.10
2023-03-17T19:21:55.442Z,16.30
2023-03-17T19:24:23.690Z,16.30
2023-03-17T19:26:51.846Z,17.00
2023-03-17T19:29:19.924Z,15.10
2023-03-17T19:31:48.884Z,15.10
2023-03-17T19:34:23.322Z,13.50
2023-03-17T19:36:54.217Z,31.30
2023-03-17T19:39:22.178Z,19.70
2023-03-17T19:41:53.333Z,20.10
2023-03-17T19:44:24.332Z,17.30
2023-03-17T19:46:52.277Z,20.80
2023-03-17T19:49:21.311Z,17.40
2023-03-17T19:51:49.591Z,18.10
2023-03-17T19:54:18.777Z,20.50
2023-03-17T19:56:47.463Z,25.60
2023-03-17T19:59:15.631Z,26.10
2023-03-17T20:01:49.099Z,24.60
2023-03-17T20:04:21.865Z,25.80
2023-03-17T20:06:55.225Z,26.20
2023-03-17T20:09:27.260Z,27.20
2023-03-17T20:11:56.629Z,22.00
2023-03-17T20:14:24.693Z,32.80
2023-03-17T20:16:53.721Z,23.30
2023-03-17T20:19:21.933Z,18.60
2023-03-17T20:21:50.086Z,19.90
2023-03-17T20:24:24.186Z,21.30
2023-03-17T20:26:59.723Z,19.80
2023-03-17T20:29:33.501Z,15.70
2023-03-17T20:32:02.203Z,19.00
2023-03-17T20:34:31.828Z,20.70
2023-03-17T20:37:04.900Z,19.90
2023-03-17T20:39:32.984Z,19.50
2023-03-17T20:42:10.048Z,16.10
2023-03-17T20:44:38.118Z,18.70
2023-03-17T20:47:06.428Z,20.60
2023-03-17T20:49:35.017Z,18.80
2023-03-17T20:52:06.023Z,20.80
2023-03-17T20:54:37.180Z,23.60
2023-03-17T20:57:05.221Z,16.90
2023-03-17T20:59:34.573Z,21.10
2023-03-17T21:02:05.214Z,19.20
2023-03-17T21:04:36.409Z,17.50
2023-03-17T21:07:06.856Z,16.70
2023-03-17T21:09:34.899Z,18.40
2023-03-17T21:12:14.530Z,14.90
2023-03-17T21:14:46.619Z,16.00
2023-03-17T21:17:14.774Z,16.00
2023-03-17T21:19:43.352Z,20.00
2023-03-17T21:22:14.544Z,17.60
2023-03-17T21:24:42.955Z,21.20
2023-03-17T21:27:18.680Z,19.30
2023-03-17T21:29:48.356Z,23.50
2023-03-17T21:32:22.470Z,19.90
2023-03-17T21:34:54.432Z,24.30
2023-03-17T21:37:22.650Z,22.00
2023-03-17T21:39:53.678Z,21.70
2023-03-17T21:42:21.701Z,18.10
2023-03-17T21:44:52.605Z,20.50
2023-03-17T21:47:23.514Z,22.20
2023-03-17T21:49:51.879Z,21.00
2023-03-17T21:52:22.987Z,33.60
2023-03-17T21:54:51.273Z,27.30
2023-03-17T21:57:21.840Z,29.10
2023-03-17T21:59:51.137Z,29.00
2023-03-17T22:02:32.914Z,24.20
2023-03-17T22:05:04.827Z,17.30
2023-03-17T22:07:33.113Z,25.50
2023-03-17T22:10:01.326Z,29.90
2023-03-17T22:12:29.473Z,24.30
2023-03-17T22:14:58.370Z,29.80
2023-03-17T22:17:26.471Z,29.00
2023-03-17T22:19:54.513Z,25.80
2023-03-17T22:22:22.571Z,22.20
2023-03-17T22:24:50.677Z,21.50
2023-03-17T22:27:18.906Z,20.50
2023-03-17T22:29:47.521Z,23.20
2023-03-17T22:32:15.464Z,19.40
2023-03-17T22:34:43.789Z,19.00
2023-03-17T22:37:11.884Z,22.40
2023-03-17T22:39:39.917Z,24.10
2023-03-17T22:42:08.020Z,25.10
2023-03-17T22:44:36.364Z,28.60
2023-03-17T22:47:04.567Z,33.20
2023-03-17T22:49:32.656Z,16.90
2023-03-17T22:52:00.735Z,25.40
2023-03-17T22:54:28.829Z,24.10
2023-03-17T22:56:57.047Z,23.70
2023-03-17T22:59:25.111Z,34.20
2023-03-17T23:01:53.095Z,35.40
2023-03-17T23:04:21.064Z,31.60
2023-03-17T23:06:49.152Z,29.00
2023-03-17T23:09:17.213Z,32.10
2023-03-17T23:11:45.156Z,34.50
2023-03-17T23:14:13.313Z,39.90
2023-03-17T23:16:41.518Z,36.10
2023-03-17T23:19:09.745Z,38.70
2023-03-17T23:21:38.562Z,39.60
2023-03-17T23:24:07.881Z,33.90
2023-03-17T23:26:37.061Z,34.90
2023-03-17T23:29:06.994Z,40.20
2023-03-17T23:31:35.404Z,30.30
2023-03-17T23:34:04.776Z,42.60
2023-03-17T23:36:33.652Z,30.40
2023-03-17T23:39:02.367Z,26.70
2023-03-17T23:41:30.459Z,29.40
2023-03-17T23:43:58.708Z,32.10
2023-03-17T23:46:27.340Z,43.30
2023-03-17T23:48:55.464Z,37.00
2023-03-17T23:51:24.053Z,37.20
2023-03-17T23:53:52.951Z,32.30
2023-03-17T23:56:20.930Z,36.40
2023-03-17T23:58:49.139Z,37.20
